Flugplatz LSV Bückeburg Weinberg (UL)

Hier findest Du alle Informationen zum Flugplatz LSV Bückeburg Weinberg (UL).

Informationen für Piloten zum Flugplatz LSV Bückeburg Weinberg

Hier findest Du alle relevanten Informationen, die Du als Pilot benötigst, um LSV Bückeburg Weinberg anzufliegen.

Flugplatz: LSV Bückeburg Weinberg ICAO-Code: UL Flugplatz
Frequenz Turm: 129,97 Mhz GAFOR Gebiet: -
Frequenz Ground: 129,97 Mhz Mogas: nein
Platzrunde: N 0 ft Landegebühr: -
Platzhöhe: Sunrise: 06:02 Uhr UTC
Pisten: 09/27 - 800 m x 100 m, GRAS Sunset: 17:09 Uhr UTC

Flugwetter am Flugplatz LSV Bückeburg Weinberg

Die METAR Information stammen aus EDDV (50.54 km entfernt).

METAR Code:
2024/01/08 12:20
EDDV 081220Z AUTO 07010KT CAVOK M03/M10 Q1033 NOSIG

Flugschulen am Flugplatz LSV Bückeburg Weinberg

Am Flugplatz LSV Bückeburg Weinberg gibt es leider keine Flugschule.

Benachbarte Flugplätze und Flugschulen

Es gibt 13 weitere Flugplätze in einem Umkreis von 50 km um den Flugplatz LSV Bückeburg Weinberg.

Jetzt anmelden

Passwort vergessen

Umfrage Archiv

Wie häufig haltet Ihr die Halbkreisflugregel ein?

Eher häufig!
34.9 %
Immer!
33 %
Hin und wieder!
15.3 %
Nie!
10 %
Eher selten!
6.7 %
Stimmen: 209 | Diskussion
Anzeige: Roland Aircraft
Statistik Alle Mitglieder

Aktuell sind 24 Besucher online, davon 1 Mitglied und 23 Gäste.


Mitglieder online:
Chris_EDNC 

Anzeige: EasyVFR